createdAt,value
2018-08-20T00:00:18.560Z,10.27
2018-08-20T00:02:46.960Z,10.63
2018-08-20T00:05:15.377Z,10.20
2018-08-20T00:07:43.921Z,10.53
2018-08-20T00:10:13.416Z,10.60
2018-08-20T00:12:42.132Z,11.07
2018-08-20T00:15:10.699Z,10.27
2018-08-20T00:17:39.204Z,10.83
2018-08-20T00:20:10.080Z,9.60
2018-08-20T00:22:38.819Z,10.40
2018-08-20T00:25:19.302Z,11.40
2018-08-20T00:27:48.568Z,10.97
2018-08-20T00:30:18.288Z,9.80
2018-08-20T00:32:48.089Z,10.67
2018-08-20T00:35:24.523Z,10.27
2018-08-20T00:38:03.092Z,10.60
2018-08-20T00:40:33.780Z,12.07
2018-08-20T00:43:02.304Z,10.47
2018-08-20T00:45:30.770Z,10.90
2018-08-20T00:47:59.303Z,11.63
2018-08-20T00:50:27.713Z,11.90
2018-08-20T00:52:56.168Z,11.40
2018-08-20T00:55:24.631Z,10.90
2018-08-20T00:57:53.012Z,11.33
2018-08-20T01:00:21.399Z,10.70
2018-08-20T01:02:49.840Z,10.90
2018-08-20T01:05:18.452Z,12.67
2018-08-20T01:07:47.362Z,11.23
2018-08-20T01:10:15.904Z,11.53
2018-08-20T01:12:44.557Z,12.57
2018-08-20T01:15:13.426Z,13.77
2018-08-20T01:17:42.003Z,13.80
2018-08-20T01:20:11.636Z,12.80
2018-08-20T01:22:43.261Z,11.80
2018-08-20T01:25:13.220Z,12.13
2018-08-20T01:27:48.979Z,11.93
2018-08-20T01:30:17.950Z,11.80
2018-08-20T01:33:06.730Z,12.43
2018-08-20T01:35:35.887Z,11.00
2018-08-20T01:38:04.559Z,10.43
2018-08-20T01:40:33.489Z,11.43
2018-08-20T01:43:01.966Z,10.70
2018-08-20T01:45:30.365Z,11.87
2018-08-20T01:47:58.843Z,12.00
2018-08-20T01:50:27.220Z,11.33
2018-08-20T01:52:55.606Z,11.83
2018-08-20T01:55:23.957Z,10.93
2018-08-20T01:57:52.267Z,11.10
2018-08-20T02:00:20.575Z,10.60
2018-08-20T02:02:55.645Z,10.10
2018-08-20T02:05:24.344Z,10.03
2018-08-20T02:07:52.763Z,9.83
2018-08-20T02:10:21.110Z,11.10
2018-08-20T02:12:49.550Z,9.53
2018-08-20T02:15:17.882Z,10.73
2018-08-20T02:17:46.200Z,10.27
2018-08-20T02:20:14.487Z,11.07
2018-08-20T02:22:42.900Z,8.87
2018-08-20T02:25:11.234Z,9.90
2018-08-20T02:27:50.166Z,10.43
2018-08-20T02:30:18.482Z,10.77
2018-08-20T02:32:46.776Z,9.73
2018-08-20T02:35:15.329Z,10.20
2018-08-20T02:37:46.649Z,9.43
2018-08-20T02:40:17.089Z,9.33
2018-08-20T02:42:45.497Z,9.40
2018-08-20T02:45:17.328Z,9.53
2018-08-20T02:47:46.430Z,8.97
2018-08-20T02:50:15.220Z,8.70
2018-08-20T02:52:44.427Z,8.53
2018-08-20T02:55:12.795Z,8.90
2018-08-20T02:57:41.138Z,8.43
2018-08-20T03:00:12.439Z,8.30
2018-08-20T03:02:47.221Z,7.40
2018-08-20T03:05:19.248Z,8.33
2018-08-20T03:07:51.911Z,8.20
2018-08-20T03:10:20.261Z,6.67
2018-08-20T03:12:49.788Z,7.83
2018-08-20T03:15:18.193Z,7.10
2018-08-20T03:17:46.662Z,7.33
2018-08-20T03:20:14.959Z,8.40
2018-08-20T03:22:46.756Z,7.77
2018-08-20T03:25:15.555Z,7.87
2018-08-20T03:27:43.841Z,6.93
2018-08-20T03:30:12.171Z,6.70
2018-08-20T03:32:49.833Z,6.80
2018-08-20T03:35:18.142Z,6.90
2018-08-20T03:37:46.516Z,6.80
2018-08-20T03:40:14.846Z,6.47
2018-08-20T03:42:43.227Z,6.53
2018-08-20T03:45:11.807Z,5.83
2018-08-20T03:47:40.749Z,6.23
2018-08-20T03:50:11.740Z,5.73
2018-08-20T03:52:40.054Z,6.27
2018-08-20T03:55:08.574Z,5.77
2018-08-20T03:57:37.326Z,5.20
2018-08-20T04:00:06.007Z,5.53
2018-08-20T04:02:34.368Z,5.47
2018-08-20T04:05:02.670Z,5.13
2018-08-20T04:07:30.976Z,5.37
2018-08-20T04:09:59.275Z,4.93
2018-08-20T04:12:27.574Z,5.60
2018-08-20T04:14:55.854Z,5.03
2018-08-20T04:17:24.115Z,4.83
2018-08-20T04:19:53.374Z,4.67
2018-08-20T04:22:21.623Z,4.97
2018-08-20T04:24:50.366Z,4.70
2018-08-20T04:27:18.749Z,4.30
2018-08-20T04:29:47.065Z,3.77
2018-08-20T04:32:15.377Z,3.87
2018-08-20T04:34:43.649Z,4.33
2018-08-20T04:37:12.166Z,4.53
2018-08-20T04:39:40.472Z,4.20
2018-08-20T04:42:08.825Z,4.00
2018-08-20T04:44:37.104Z,3.90
2018-08-20T04:47:05.582Z,3.60
2018-08-20T04:49:33.854Z,4.33
2018-08-20T04:52:08.842Z,3.83
2018-08-20T04:54:41.629Z,3.57
2018-08-20T04:57:19.196Z,4.00
2018-08-20T04:59:52.665Z,3.90
2018-08-20T05:02:21.959Z,4.57
2018-08-20T05:04:50.333Z,4.13
2018-08-20T05:07:18.587Z,3.50
2018-08-20T05:09:46.992Z,4.03
2018-08-20T05:12:19.770Z,4.20
2018-08-20T05:14:48.527Z,4.13
2018-08-20T05:17:16.956Z,3.90
2018-08-20T05:19:45.277Z,4.07
2018-08-20T05:22:13.570Z,3.90
2018-08-20T05:24:41.843Z,3.87
2018-08-20T05:27:18.006Z,3.80
2018-08-20T05:29:46.360Z,3.40
2018-08-20T05:32:14.635Z,3.80
2018-08-20T05:34:49.786Z,3.73
2018-08-20T05:37:18.289Z,3.40
2018-08-20T05:39:46.627Z,4.10
2018-08-20T05:42:15.118Z,4.60
2018-08-20T05:44:43.415Z,3.73
2018-08-20T05:47:14.272Z,3.77
2018-08-20T05:49:43.574Z,3.83
2018-08-20T05:52:12.194Z,3.20
2018-08-20T05:54:47.740Z,3.30
2018-08-20T05:57:18.898Z,3.43
2018-08-20T05:59:47.544Z,3.10
2018-08-20T06:02:16.730Z,3.53
2018-08-20T06:04:45.881Z,3.23
2018-08-20T06:07:22.376Z,3.43
2018-08-20T06:09:52.231Z,3.23
2018-08-20T06:12:23.553Z,2.70
2018-08-20T06:14:52.031Z,3.37
2018-08-20T06:17:22.520Z,2.90
2018-08-20T06:19:50.942Z,2.93
2018-08-20T06:22:19.210Z,2.87
2018-08-20T06:24:47.519Z,2.53
2018-08-20T06:27:15.854Z,2.13
2018-08-20T06:29:44.681Z,2.10
2018-08-20T06:32:12.982Z,2.80
2018-08-20T06:34:42.238Z,2.30
2018-08-20T06:37:14.716Z,2.10
2018-08-20T06:39:51.872Z,2.17
2018-08-20T06:42:26.985Z,2.20
2018-08-20T06:44:56.423Z,2.13
2018-08-20T06:47:29.235Z,2.40
2018-08-20T06:49:57.567Z,2.20
2018-08-20T06:52:26.391Z,1.97
2018-08-20T06:54:54.836Z,2.30
2018-08-20T06:57:23.857Z,2.40
2018-08-20T06:59:56.827Z,2.20
2018-08-20T07:02:25.371Z,2.80
2018-08-20T07:04:53.704Z,2.60
2018-08-20T07:07:22.235Z,2.27
2018-08-20T07:09:50.580Z,2.30
2018-08-20T07:12:26.423Z,2.10
2018-08-20T07:14:54.913Z,1.90
2018-08-20T07:17:23.232Z,1.90
2018-08-20T07:19:51.586Z,1.87
2018-08-20T07:22:19.841Z,1.77
2018-08-20T07:24:48.257Z,1.83
2018-08-20T07:27:16.627Z,1.40
2018-08-20T07:29:47.305Z,1.80
2018-08-20T07:32:16.593Z,1.80
2018-08-20T07:34:45.918Z,2.00
2018-08-20T07:37:15.399Z,2.00
2018-08-20T07:39:44.975Z,1.67
2018-08-20T07:42:13.429Z,2.00
2018-08-20T07:44:55.823Z,1.83
2018-08-20T07:47:24.171Z,2.60
2018-08-20T07:49:52.482Z,1.90
2018-08-20T07:52:22.055Z,2.30
2018-08-20T07:57:33.110Z,2.23
2018-08-20T08:00:10.986Z,2.27
2018-08-20T08:02:40.205Z,2.10
2018-08-20T08:05:09.768Z,2.07
2018-08-20T08:07:38.293Z,2.20
2018-08-20T08:10:08.631Z,2.00
2018-08-20T08:12:37.657Z,2.40
2018-08-20T08:15:06.514Z,2.10
2018-08-20T08:17:34.850Z,1.63
2018-08-20T08:20:03.293Z,2.57
2018-08-20T08:22:31.652Z,2.63
2018-08-20T08:25:00.012Z,2.63
2018-08-20T08:27:28.369Z,2.30
2018-08-20T08:29:56.686Z,2.20
2018-08-20T08:32:25.228Z,2.70
2018-08-20T08:34:53.566Z,1.87
2018-08-20T08:37:21.880Z,2.33
2018-08-20T08:39:50.135Z,2.40
2018-08-20T08:42:20.803Z,1.80
2018-08-20T08:44:49.084Z,2.20
2018-08-20T08:47:17.368Z,1.67
2018-08-20T08:49:45.690Z,2.13
2018-08-20T08:52:13.920Z,2.23
2018-08-20T08:54:43.197Z,1.93
2018-08-20T08:57:11.473Z,2.47
2018-08-20T08:59:40.700Z,3.07
2018-08-20T09:02:09.015Z,2.47
2018-08-20T09:04:40.165Z,1.90
2018-08-20T09:07:08.491Z,2.30
2018-08-20T09:09:36.802Z,2.00
2018-08-20T09:12:05.086Z,2.40
2018-08-20T09:14:33.349Z,2.40
2018-08-20T09:17:01.614Z,2.00
2018-08-20T09:19:30.026Z,1.80
2018-08-20T09:21:58.295Z,1.80
2018-08-20T09:24:27.321Z,2.63
2018-08-20T09:26:56.674Z,2.40
2018-08-20T09:29:25.159Z,3.70
2018-08-20T09:31:53.555Z,2.23
2018-08-20T09:34:21.831Z,2.50
2018-08-20T09:36:50.117Z,1.80
2018-08-20T09:39:18.438Z,1.93
2018-08-20T09:41:48.594Z,1.77
2018-08-20T09:44:20.554Z,1.47
2018-08-20T09:46:50.502Z,1.60
2018-08-20T09:49:20.399Z,1.63
2018-08-20T09:51:50.756Z,1.20
2018-08-20T09:54:21.612Z,1.47
2018-08-20T09:56:52.584Z,1.10
2018-08-20T09:59:23.478Z,0.80
2018-08-20T10:01:53.867Z,1.30
2018-08-20T10:04:23.861Z,1.40
2018-08-20T10:06:54.292Z,1.00
2018-08-20T10:09:24.631Z,1.00
2018-08-20T10:11:54.396Z,1.00
2018-08-20T10:14:24.121Z,0.80
2018-08-20T10:16:53.901Z,1.10
2018-08-20T10:19:23.790Z,0.80
2018-08-20T10:21:53.755Z,0.80
2018-08-20T10:24:23.690Z,1.00
2018-08-20T10:26:52.273Z,1.17
2018-08-20T10:29:21.632Z,1.00
2018-08-20T10:31:51.026Z,1.10
2018-08-20T10:34:21.656Z,0.80
2018-08-20T10:36:51.510Z,0.80
2018-08-20T10:39:24.097Z,0.93
2018-08-20T10:41:53.172Z,0.90
2018-08-20T10:44:22.377Z,1.03
2018-08-20T10:46:54.049Z,0.93
2018-08-20T10:49:26.441Z,0.83
2018-08-20T10:52:06.284Z,1.20
2018-08-20T10:54:39.196Z,1.10
2018-08-20T10:57:09.205Z,0.80
2018-08-20T10:59:40.172Z,1.00
2018-08-20T11:02:14.485Z,0.80
2018-08-20T11:04:50.215Z,0.80
2018-08-20T11:07:19.803Z,0.70
2018-08-20T11:09:49.417Z,0.90
2018-08-20T11:12:22.168Z,0.80
2018-08-20T11:15:16.511Z,0.70
2018-08-20T11:17:48.834Z,0.80
2018-08-20T11:20:19.027Z,1.00
2018-08-20T11:22:49.498Z,0.90
2018-08-20T11:25:21.233Z,1.10
2018-08-20T11:27:54.731Z,0.90
2018-08-20T11:30:32.013Z,0.80
2018-08-20T11:33:04.052Z,1.40
2018-08-20T11:35:39.819Z,1.00
2018-08-20T11:38:12.518Z,0.90
2018-08-20T11:40:41.670Z,1.13
2018-08-20T11:43:15.540Z,0.90
2018-08-20T11:45:46.586Z,1.10
2018-08-20T11:48:19.377Z,1.30
2018-08-20T11:50:51.547Z,1.47
2018-08-20T11:53:22.584Z,1.30
2018-08-20T11:55:53.854Z,1.00
2018-08-20T11:58:25.149Z,1.63
2018-08-20T12:00:56.224Z,1.23
2018-08-20T12:03:30.311Z,1.00
2018-08-20T12:06:02.002Z,1.70
2018-08-20T12:08:32.153Z,1.47
2018-08-20T12:11:03.237Z,1.10
2018-08-20T12:13:33.599Z,1.20
2018-08-20T12:16:04.719Z,1.20
2018-08-20T12:18:35.374Z,1.27
2018-08-20T12:21:08.557Z,1.07
2018-08-20T12:23:39.127Z,1.00
2018-08-20T12:26:09.619Z,1.00
2018-08-20T12:28:45.266Z,1.10
2018-08-20T12:31:25.252Z,1.40
2018-08-20T12:34:05.863Z,1.00
2018-08-20T12:36:42.798Z,1.10
2018-08-20T12:39:27.766Z,1.30
2018-08-20T12:42:00.327Z,1.30
2018-08-20T12:44:30.351Z,1.40
2018-08-20T12:46:58.763Z,1.20
2018-08-20T12:49:27.060Z,1.40
2018-08-20T12:51:55.323Z,1.00
2018-08-20T12:54:23.595Z,1.07
2018-08-20T12:56:52.026Z,0.90
2018-08-20T12:59:20.348Z,1.10
2018-08-20T13:01:48.634Z,1.00
2018-08-20T13:04:16.907Z,1.20
2018-08-20T13:06:45.247Z,0.97
2018-08-20T13:09:13.509Z,1.03
2018-08-20T13:11:41.839Z,0.70
2018-08-20T13:14:10.107Z,0.70
2018-08-20T13:16:39.737Z,0.70
2018-08-20T13:19:08.136Z,0.87
2018-08-20T13:21:47.417Z,0.63
2018-08-20T13:24:15.786Z,0.80
2018-08-20T13:26:44.523Z,1.00
2018-08-20T13:29:12.803Z,0.80
2018-08-20T13:31:41.196Z,1.00
2018-08-20T13:34:09.459Z,0.83
2018-08-20T13:36:37.728Z,0.77
2018-08-20T13:39:07.782Z,0.80
2018-08-20T13:41:36.267Z,0.80
2018-08-20T13:44:04.598Z,0.90
2018-08-20T13:46:33.282Z,0.80
2018-08-20T13:49:05.546Z,0.80
2018-08-20T13:51:34.565Z,1.00
2018-08-20T13:54:02.863Z,0.70
2018-08-20T13:56:31.548Z,0.70
2018-08-20T13:59:01.738Z,0.90
2018-08-20T14:01:29.989Z,0.87
2018-08-20T14:03:58.357Z,0.67
2018-08-20T14:06:26.657Z,0.90
2018-08-20T14:08:54.931Z,0.90
2018-08-20T14:11:23.882Z,1.30
2018-08-20T14:13:52.166Z,0.90
2018-08-20T14:16:20.447Z,0.80
2018-08-20T14:18:48.711Z,0.80
2018-08-20T14:21:17.217Z,0.70
2018-08-20T14:23:46.696Z,1.00
2018-08-20T14:26:14.979Z,0.80
2018-08-20T14:28:43.702Z,0.90
2018-08-20T14:31:11.963Z,1.00
2018-08-20T14:33:40.335Z,1.03
2018-08-20T14:36:09.226Z,1.27
2018-08-20T14:38:37.702Z,0.87
2018-08-20T14:41:06.366Z,0.93
2018-08-20T14:43:34.696Z,0.90
2018-08-20T14:46:08.304Z,0.70
2018-08-20T14:48:36.576Z,0.90
2018-08-20T14:51:04.859Z,1.00
2018-08-20T14:53:33.143Z,1.10
2018-08-20T14:56:01.407Z,1.10
2018-08-20T14:58:29.987Z,0.80
2018-08-20T15:00:58.252Z,0.70
2018-08-20T15:03:26.498Z,1.30
2018-08-20T15:05:54.870Z,0.80
2018-08-20T15:08:23.135Z,0.80
2018-08-20T15:10:51.817Z,1.10
2018-08-20T15:13:20.083Z,1.10
2018-08-20T15:15:48.450Z,1.37
2018-08-20T15:18:16.608Z,0.90
2018-08-20T15:20:44.962Z,0.80
2018-08-20T15:23:13.809Z,0.90
2018-08-20T15:25:42.111Z,1.07
2018-08-20T15:28:10.441Z,1.00
2018-08-20T15:30:38.727Z,0.70
2018-08-20T15:33:07.402Z,0.80
2018-08-20T15:35:35.725Z,0.80
2018-08-20T15:38:04.600Z,0.60
2018-08-20T15:40:33.856Z,0.80
2018-08-20T15:43:03.077Z,0.73
2018-08-20T15:45:34.531Z,0.70
2018-08-20T15:48:04.784Z,0.90
2018-08-20T15:50:39.119Z,0.80
2018-08-20T15:53:10.553Z,0.80
2018-08-20T15:55:41.941Z,0.77
2018-08-20T15:58:18.830Z,1.10
2018-08-20T16:00:47.879Z,0.90
2018-08-20T16:03:16.308Z,0.70
2018-08-20T16:05:45.189Z,1.10
2018-08-20T16:08:13.792Z,1.10
2018-08-20T16:10:42.729Z,0.80
2018-08-20T16:13:12.681Z,1.23
2018-08-20T16:15:41.716Z,1.40
2018-08-20T16:18:10.377Z,0.80
2018-08-20T16:20:40.201Z,1.00
2018-08-20T16:23:13.299Z,0.88
2018-08-20T16:28:26.872Z,0.80
2018-08-20T16:31:11.677Z,0.88
2018-08-20T16:33:43.057Z,1.00
2018-08-20T16:36:24.809Z,1.02
2018-08-20T16:39:20.904Z,1.17
2018-08-20T16:42:20.828Z,0.78
2018-08-20T16:45:11.532Z,0.90
2018-08-20T16:48:10.685Z,0.85
2018-08-20T16:51:06.029Z,0.70
2018-08-20T16:53:41.957Z,0.97
2018-08-20T16:56:36.436Z,1.13
2018-08-20T16:59:30.623Z,1.40
2018-08-20T17:02:26.987Z,0.83
2018-08-20T17:05:28.459Z,1.37
2018-08-20T17:13:59.752Z,3.97
2018-08-20T17:16:56.425Z,4.13
2018-08-20T17:19:52.575Z,4.27
2018-08-20T17:25:52.934Z,2.83
2018-08-20T17:28:48.695Z,2.77
2018-08-20T17:34:33.444Z,1.80
2018-08-20T17:43:00.113Z,1.40
2018-08-20T17:46:12.676Z,1.20
2018-08-20T17:49:04.172Z,1.33
2018-08-20T17:51:48.407Z,1.37
2018-08-20T17:54:20.028Z,1.40
2018-08-20T17:56:51.049Z,1.10
2018-08-20T17:59:38.347Z,1.50
2018-08-20T18:02:39.675Z,1.33
2018-08-20T18:09:02.741Z,1.33
2018-08-20T18:11:31.261Z,1.50
2018-08-20T18:13:59.642Z,1.77
2018-08-20T18:16:29.317Z,1.40
2018-08-20T18:19:00.362Z,1.70
2018-08-20T18:21:29.668Z,1.20
2018-08-20T18:24:00.290Z,1.57
2018-08-20T18:26:37.220Z,1.80
2018-08-20T18:29:09.493Z,2.30
2018-08-20T18:31:41.041Z,1.93
2018-08-20T18:38:02.302Z,2.00
2018-08-20T18:41:09.457Z,1.90
2018-08-20T18:44:08.263Z,1.90
2018-08-20T18:46:42.330Z,1.80
2018-08-20T18:49:10.798Z,1.80
2018-08-20T18:51:49.234Z,2.57
2018-08-20T18:54:19.169Z,2.23
2018-08-20T18:56:55.460Z,2.90
2018-08-20T18:59:36.589Z,2.60
2018-08-20T19:02:07.245Z,2.53
2018-08-20T19:04:50.729Z,2.20
2018-08-20T19:07:37.806Z,2.40
2018-08-20T19:17:08.038Z,2.57
2018-08-20T19:28:10.575Z,2.57
2018-08-20T19:37:14.441Z,2.10
2018-08-20T19:42:47.980Z,2.50
2018-08-20T19:45:26.055Z,1.87
2018-08-20T19:47:56.171Z,2.50
2018-08-20T19:50:28.149Z,2.37
2018-08-20T19:53:25.390Z,2.30
2018-08-20T19:55:57.624Z,2.57
2018-08-20T19:58:33.318Z,2.63
2018-08-20T20:01:20.063Z,2.10
2018-08-20T20:18:18.446Z,2.63
2018-08-20T20:24:44.674Z,2.73
2018-08-20T20:27:37.465Z,2.83
2018-08-20T20:30:18.600Z,2.73
2018-08-20T20:36:41.127Z,2.90
2018-08-20T20:39:27.755Z,3.10
2018-08-20T20:42:06.989Z,3.20
2018-08-20T20:44:45.273Z,2.70
2018-08-20T20:47:36.045Z,2.77
2018-08-20T20:53:46.500Z,3.37
2018-08-20T20:56:14.802Z,3.37
2018-08-20T20:58:43.216Z,3.70
2018-08-20T21:01:12.955Z,3.27
2018-08-20T21:03:41.324Z,4.03
2018-08-20T21:06:09.741Z,4.13
2018-08-20T21:08:44.029Z,3.90
2018-08-20T21:11:13.673Z,3.83
2018-08-20T21:13:42.796Z,3.87
2018-08-20T21:16:12.640Z,3.40
2018-08-20T21:18:50.148Z,3.80
2018-08-20T21:21:19.085Z,3.70
2018-08-20T21:23:47.447Z,3.93
2018-08-20T21:26:15.846Z,3.93
2018-08-20T21:28:47.452Z,4.17
2018-08-20T21:31:17.084Z,3.90
2018-08-20T21:33:49.475Z,5.00
2018-08-20T21:36:19.629Z,4.30
2018-08-20T21:38:50.686Z,5.30
2018-08-20T21:41:29.552Z,5.50
2018-08-20T21:43:57.963Z,5.27
2018-08-20T21:46:26.290Z,5.80
2018-08-20T21:48:54.615Z,5.57
2018-08-20T21:51:29.043Z,5.67
2018-08-20T21:53:57.620Z,5.50
2018-08-20T21:56:35.912Z,6.40
2018-08-20T21:59:04.283Z,5.43
2018-08-20T22:01:32.738Z,5.60
2018-08-20T22:04:01.051Z,5.30
2018-08-20T22:06:29.400Z,6.17
2018-08-20T22:08:58.386Z,6.40
2018-08-20T22:11:26.699Z,7.10
2018-08-20T22:13:55.254Z,6.00
2018-08-20T22:16:24.410Z,7.17
2018-08-20T22:18:54.947Z,6.90
2018-08-20T22:21:23.393Z,6.90
2018-08-20T22:23:51.838Z,7.93
2018-08-20T22:26:21.230Z,7.10
2018-08-20T22:28:51.323Z,6.90
2018-08-20T22:31:20.024Z,6.93
2018-08-20T22:33:55.786Z,7.60
2018-08-20T22:36:24.598Z,7.80
2018-08-20T22:38:54.099Z,7.47
2018-08-20T22:41:23.662Z,10.07
2018-08-20T22:43:52.055Z,9.27
2018-08-20T22:46:21.602Z,10.83
2018-08-20T22:48:50.831Z,10.00
2018-08-20T22:51:19.853Z,9.80
2018-08-20T22:53:51.605Z,9.47
2018-08-20T22:56:28.385Z,9.83
2018-08-20T22:59:07.866Z,8.30
2018-08-20T23:01:36.188Z,8.30
2018-08-20T23:04:04.972Z,7.77
2018-08-20T23:06:33.251Z,7.93
2018-08-20T23:09:18.400Z,7.70
2018-08-20T23:11:52.024Z,7.13
2018-08-20T23:14:21.196Z,7.03
2018-08-20T23:16:52.049Z,6.60
2018-08-20T23:19:21.250Z,6.30
2018-08-20T23:21:54.012Z,5.93
2018-08-20T23:24:23.317Z,5.73
2018-08-20T23:26:52.265Z,6.23
2018-08-20T23:29:21.280Z,6.00
2018-08-20T23:31:50.942Z,6.33
2018-08-20T23:34:19.695Z,6.10
2018-08-20T23:36:48.357Z,5.87
2018-08-20T23:39:17.992Z,5.87
2018-08-20T23:41:46.995Z,5.63
2018-08-20T23:44:16.648Z,5.40
2018-08-20T23:46:49.923Z,6.03
2018-08-20T23:49:19.108Z,5.13
2018-08-20T23:51:47.402Z,5.57
2018-08-20T23:54:15.695Z,5.87
2018-08-20T23:56:43.971Z,5.33
2018-08-20T23:59:13.329Z,5.97
